createdAt,value
2024-02-27T00:04:48.270Z,6.83
2024-02-27T00:09:52.727Z,6.81
2024-02-27T00:14:56.361Z,6.69
2024-02-27T00:19:59.637Z,6.67
2024-02-27T00:25:04.487Z,6.70
2024-02-27T00:30:08.965Z,6.68
2024-02-27T00:35:12.875Z,6.62
2024-02-27T00:40:17.658Z,6.65
2024-02-27T00:45:20.911Z,6.62
2024-02-27T00:50:24.141Z,6.62
2024-02-27T00:55:28.610Z,6.66
2024-02-27T01:00:31.873Z,6.70
2024-02-27T01:05:35.114Z,6.66
2024-02-27T01:10:39.589Z,6.55
2024-02-27T01:15:42.753Z,6.56
2024-02-27T01:20:46.004Z,6.36
2024-02-27T01:25:50.438Z,6.34
2024-02-27T01:30:53.730Z,6.30
2024-02-27T01:35:57.193Z,6.19
2024-02-27T01:41:01.783Z,6.01
2024-02-27T01:46:13.150Z,5.95
2024-02-27T01:51:17.535Z,5.87
2024-02-27T01:56:22.928Z,5.75
2024-02-27T02:01:26.551Z,5.60
2024-02-27T02:06:30.297Z,5.59
2024-02-27T02:11:34.850Z,5.47
2024-02-27T02:16:38.037Z,5.45
2024-02-27T02:21:42.548Z,5.44
2024-02-27T02:26:46.046Z,5.52
2024-02-27T02:31:49.121Z,5.52
2024-02-27T02:36:53.561Z,5.42
2024-02-27T02:41:56.712Z,5.40
2024-02-27T02:46:59.858Z,5.40
2024-02-27T02:52:04.583Z,5.26
2024-02-27T02:57:07.761Z,5.27
2024-02-27T03:02:11.115Z,5.24
2024-02-27T03:07:15.720Z,5.21
2024-02-27T03:12:19.992Z,5.14
2024-02-27T03:17:23.163Z,5.08
2024-02-27T03:22:27.605Z,5.06
2024-02-27T03:27:31.601Z,4.93
2024-02-27T03:32:35.013Z,4.82
2024-02-27T03:37:39.916Z,4.77
2024-02-27T03:42:43.316Z,4.74
2024-02-27T03:47:46.976Z,4.81
2024-02-27T03:52:51.406Z,4.76
2024-02-27T03:57:54.495Z,4.73
2024-02-27T04:02:58.265Z,4.61
2024-02-27T04:08:02.833Z,4.58
2024-02-27T04:13:07.228Z,4.53
2024-02-27T04:18:10.433Z,4.43
2024-02-27T04:23:15.052Z,4.34
2024-02-27T04:28:18.688Z,4.29
2024-02-27T04:33:22.608Z,4.34
2024-02-27T04:38:27.182Z,4.37
2024-02-27T04:43:30.273Z,4.31
2024-02-27T04:48:33.485Z,4.21
2024-02-27T04:53:39.971Z,4.22
2024-02-27T04:58:43.084Z,4.19
2024-02-27T05:03:46.280Z,4.14
2024-02-27T05:08:50.753Z,4.11
2024-02-27T05:13:54.478Z,4.08
2024-02-27T05:18:57.662Z,4.02
2024-02-27T05:24:02.112Z,4.11
2024-02-27T05:29:05.265Z,4.13
2024-02-27T05:34:08.801Z,4.13
2024-02-27T05:39:13.683Z,4.16
2024-02-27T05:44:17.223Z,4.06
2024-02-27T05:49:20.510Z,4.05
2024-02-27T05:54:25.044Z,4.11
2024-02-27T05:59:28.206Z,4.07
2024-02-27T06:04:32.407Z,4.07
2024-02-27T06:09:36.893Z,4.04
2024-02-27T06:14:40.242Z,3.98
2024-02-27T06:19:46.358Z,3.93
2024-02-27T06:24:50.989Z,4.01
2024-02-27T06:29:54.184Z,4.21
2024-02-27T06:34:57.497Z,4.33
2024-02-27T06:40:01.972Z,4.42
2024-02-27T06:45:05.479Z,4.51
2024-02-27T06:50:10.950Z,4.51
2024-02-27T06:55:15.451Z,4.60
2024-02-27T07:00:18.762Z,4.71
2024-02-27T07:05:25.277Z,4.84
2024-02-27T07:10:34.301Z,4.88
2024-02-27T07:15:38.398Z,5.13
2024-02-27T07:20:43.031Z,5.56
2024-02-27T07:25:47.695Z,6.09
2024-02-27T07:30:51.320Z,6.70
2024-02-27T07:35:54.574Z,7.27
2024-02-27T07:40:59.017Z,7.73
2024-02-27T07:46:02.084Z,8.20
2024-02-27T07:51:05.786Z,8.78
2024-02-27T07:56:10.221Z,8.65
2024-02-27T08:01:15.326Z,8.10
2024-02-27T08:06:19.289Z,7.70
2024-02-27T08:11:24.814Z,7.86
2024-02-27T08:16:27.963Z,7.57
2024-02-27T08:21:31.092Z,7.95
2024-02-27T08:26:35.605Z,7.98
2024-02-27T08:31:38.806Z,8.07
2024-02-27T08:36:42.139Z,8.90
2024-02-27T08:41:48.043Z,9.90
2024-02-27T08:46:52.575Z,10.75
2024-02-27T08:51:55.676Z,11.22
2024-02-27T08:57:00.128Z,11.54
2024-02-27T09:02:03.842Z,11.57
2024-02-27T09:07:07.293Z,12.51
2024-02-27T09:12:12.079Z,12.63
2024-02-27T09:17:15.664Z,12.63
2024-02-27T09:22:19.067Z,12.85
2024-02-27T09:27:24.512Z,13.03
2024-02-27T09:32:27.729Z,12.37
2024-02-27T09:37:30.834Z,12.28
2024-02-27T09:42:36.536Z,13.21
2024-02-27T09:47:46.817Z,13.42
2024-02-27T09:52:52.864Z,13.47
2024-02-27T09:57:59.595Z,13.83
2024-02-27T10:03:04.138Z,14.15
2024-02-27T10:08:13.154Z,14.08
2024-02-27T10:13:18.800Z,13.49
2024-02-27T10:18:22.066Z,13.59
2024-02-27T10:23:25.278Z,13.42
2024-02-27T10:28:29.898Z,12.39
2024-02-27T10:33:33.837Z,11.54
2024-02-27T10:38:38.297Z,11.88
2024-02-27T10:43:42.833Z,12.83
2024-02-27T10:48:46.134Z,13.39
2024-02-27T10:53:51.930Z,13.66
2024-02-27T10:58:56.729Z,13.21
2024-02-27T11:04:04.547Z,13.41
2024-02-27T11:09:13.074Z,13.46
2024-02-27T11:14:20.688Z,13.54
2024-02-27T11:19:25.966Z,13.32
2024-02-27T11:24:29.981Z,13.70
2024-02-27T11:29:36.150Z,13.52
2024-02-27T11:34:40.874Z,14.34
2024-02-27T11:39:44.422Z,14.51
2024-02-27T11:45:08.679Z,15.62
2024-02-27T11:50:13.216Z,15.02
2024-02-27T11:55:16.357Z,14.75
2024-02-27T12:00:21.217Z,14.73
2024-02-27T12:05:24.338Z,15.16
2024-02-27T12:10:27.733Z,14.80
2024-02-27T12:15:32.239Z,14.34
2024-02-27T12:20:35.697Z,15.07
2024-02-27T12:25:44.104Z,14.83
2024-02-27T12:30:49.971Z,15.02
2024-02-27T12:35:53.141Z,14.30
2024-02-27T12:40:57.532Z,14.34
2024-02-27T12:46:02.464Z,13.57
2024-02-27T12:51:06.267Z,13.62
2024-02-27T12:56:09.710Z,13.67
2024-02-27T13:01:14.833Z,13.67
2024-02-27T13:06:18.465Z,13.52
2024-02-27T13:11:21.746Z,13.76
2024-02-27T13:16:26.247Z,14.02
2024-02-27T13:21:30.761Z,13.92
2024-02-27T13:26:34.207Z,14.11
2024-02-27T13:31:38.670Z,13.73
2024-02-27T13:36:41.911Z,13.65
2024-02-27T13:41:46.883Z,13.58
2024-02-27T13:46:51.306Z,13.67
2024-02-27T13:51:54.445Z,13.50
2024-02-27T13:56:57.555Z,13.48
2024-02-27T14:02:02.324Z,13.30
2024-02-27T14:07:05.892Z,13.14
2024-02-27T14:12:09.704Z,12.44
2024-02-27T14:17:14.464Z,12.39
2024-02-27T14:22:19.723Z,12.22
2024-02-27T14:27:23.457Z,11.97
2024-02-27T14:32:29.643Z,12.03
2024-02-27T14:37:35.342Z,11.94
2024-02-27T14:42:40.063Z,11.85
2024-02-27T14:47:44.610Z,11.41
2024-02-27T14:52:47.815Z,11.16
2024-02-27T14:57:51.036Z,11.02
2024-02-27T15:02:55.507Z,10.81
2024-02-27T15:07:59.021Z,10.56
2024-02-27T15:13:02.270Z,10.34
2024-02-27T15:18:07.127Z,10.14
2024-02-27T15:23:11.319Z,10.25
2024-02-27T15:28:14.515Z,10.13
2024-02-27T15:33:19.267Z,10.07
2024-02-27T15:38:22.381Z,10.02
2024-02-27T15:43:25.597Z,9.91
2024-02-27T15:48:30.509Z,9.95
2024-02-27T15:53:33.940Z,9.89
2024-02-27T15:58:38.131Z,9.67
2024-02-27T16:03:58.932Z,9.69
2024-02-27T16:09:02.087Z,9.62
2024-02-27T16:14:05.526Z,9.59
2024-02-27T16:19:11.051Z,9.59
2024-02-27T16:24:14.432Z,9.38
2024-02-27T16:29:17.544Z,9.23
2024-02-27T16:34:22.657Z,9.18
2024-02-27T16:39:25.865Z,8.98
2024-02-27T16:44:29.101Z,8.76
2024-02-27T16:49:33.751Z,8.58
2024-02-27T16:54:36.939Z,8.27
2024-02-27T16:59:40.038Z,8.05
2024-02-27T17:04:44.947Z,7.83
2024-02-27T17:09:48.144Z,7.65
2024-02-27T17:14:51.256Z,7.40
2024-02-27T17:19:55.712Z,7.27
2024-02-27T17:24:59.026Z,7.01
2024-02-27T17:30:02.270Z,6.89
2024-02-27T17:35:07.588Z,6.90
2024-02-27T17:40:12.019Z,6.83
2024-02-27T17:45:15.159Z,6.89
2024-02-27T17:50:19.701Z,6.72
2024-02-27T17:55:22.864Z,6.64
2024-02-27T18:00:26.014Z,6.55
2024-02-27T18:05:30.624Z,6.49
2024-02-27T18:10:33.986Z,6.48
2024-02-27T18:15:37.270Z,6.43
2024-02-27T18:20:41.749Z,6.43
2024-02-27T18:25:44.847Z,6.39
2024-02-27T18:30:49.571Z,6.43
2024-02-27T18:35:56.116Z,6.35
2024-02-27T18:40:59.188Z,6.38
2024-02-27T18:46:02.405Z,6.29
2024-02-27T18:51:07.304Z,6.17
2024-02-27T18:56:10.435Z,6.13
2024-02-27T19:01:14.072Z,5.89
2024-02-27T19:06:18.673Z,5.65
2024-02-27T19:11:22.018Z,5.47
2024-02-27T19:16:25.210Z,5.44
2024-02-27T19:21:29.738Z,5.49
2024-02-27T19:26:32.841Z,5.52
2024-02-27T19:31:36.200Z,5.45
2024-02-27T19:36:40.953Z,5.36
2024-02-27T19:41:44.098Z,5.29
2024-02-27T19:46:47.231Z,5.24
2024-02-27T19:51:52.186Z,5.15
2024-02-27T19:56:55.708Z,5.13
2024-02-27T20:01:58.971Z,5.06
2024-02-27T20:07:03.596Z,4.94
2024-02-27T20:12:07.408Z,4.94
2024-02-27T20:17:10.544Z,4.92
2024-02-27T20:22:15.069Z,4.88
2024-02-27T20:27:18.155Z,4.88
2024-02-27T20:32:21.269Z,4.88
2024-02-27T20:37:25.713Z,4.88
2024-02-27T20:42:28.828Z,4.84
2024-02-27T20:47:32.073Z,4.80
2024-02-27T20:52:36.501Z,4.73
2024-02-27T20:57:39.696Z,4.67
2024-02-27T21:02:42.854Z,4.73
2024-02-27T21:07:47.458Z,4.70
2024-02-27T21:12:50.712Z,4.69
2024-02-27T21:17:53.897Z,4.64
2024-02-27T21:22:58.390Z,4.62
2024-02-27T21:28:03.828Z,4.61
2024-02-27T21:33:08.263Z,4.58
2024-02-27T21:38:12.892Z,4.54
2024-02-27T21:43:16.033Z,4.49
2024-02-27T21:48:20.019Z,4.42
2024-02-27T21:53:24.609Z,4.36
2024-02-27T21:58:28.336Z,4.29
2024-02-27T22:03:33.052Z,4.26
2024-02-27T22:08:37.528Z,4.20
2024-02-27T22:13:40.761Z,4.15
2024-02-27T22:18:43.946Z,4.10
2024-02-27T22:23:48.613Z,4.01
2024-02-27T22:28:51.721Z,3.98
2024-02-27T22:33:54.880Z,3.89
2024-02-27T22:38:59.338Z,3.81
2024-02-27T22:44:02.524Z,3.79
2024-02-27T22:49:05.611Z,3.73
2024-02-27T22:54:10.131Z,3.66
2024-02-27T22:59:13.301Z,3.67
2024-02-27T23:04:16.507Z,3.55
2024-02-27T23:09:21.159Z,3.48
2024-02-27T23:14:24.470Z,3.39
2024-02-27T23:19:27.610Z,3.46
2024-02-27T23:24:32.059Z,3.43
2024-02-27T23:29:35.130Z,3.40
2024-02-27T23:34:38.237Z,3.42
2024-02-27T23:39:42.723Z,3.40
2024-02-27T23:44:45.892Z,3.36
2024-02-27T23:49:48.984Z,3.35
2024-02-27T23:54:53.493Z,3.25
2024-02-27T23:59:56.895Z,3.24
